createdAt,value
2023-04-24T00:02:16.921Z,43.35
2023-04-24T00:04:47.935Z,43.54
2023-04-24T00:07:18.853Z,43.41
2023-04-24T00:09:49.813Z,43.39
2023-04-24T00:12:20.708Z,43.45
2023-04-24T00:14:51.586Z,43.48
2023-04-24T00:17:22.610Z,43.61
2023-04-24T00:19:59.518Z,43.77
2023-04-24T00:22:30.779Z,43.90
2023-04-24T00:25:01.579Z,43.85
2023-04-24T00:27:32.481Z,43.97
2023-04-24T00:30:03.544Z,44.02
2023-04-24T00:33:39.771Z,44.21
2023-04-24T00:36:10.732Z,44.15
2023-04-24T00:38:41.545Z,44.21
2023-04-24T00:41:12.398Z,44.11
2023-04-24T00:43:43.252Z,44.18
2023-04-24T00:46:14.121Z,44.23
2023-04-24T00:48:44.865Z,44.37
2023-04-24T00:51:15.933Z,44.37
2023-04-24T00:53:46.728Z,44.47
2023-04-24T00:56:19.174Z,44.69
2023-04-24T00:58:50.093Z,44.71
2023-04-24T01:01:21.971Z,44.67
2023-04-24T01:03:53.557Z,44.70
2023-04-24T01:06:24.629Z,44.79
2023-04-24T01:08:55.464Z,44.87
2023-04-24T01:11:26.264Z,44.94
2023-04-24T01:13:57.099Z,45.01
2023-04-24T01:16:28.310Z,45.04
2023-04-24T01:18:59.279Z,45.05
2023-04-24T01:21:30.156Z,45.06
2023-04-24T01:24:00.941Z,44.97
2023-04-24T01:26:31.699Z,45.00
2023-04-24T01:29:02.659Z,44.95
2023-04-24T01:31:34.319Z,45.12
2023-04-24T01:34:05.199Z,45.20
2023-04-24T01:36:36.260Z,45.27
2023-04-24T01:39:07.100Z,45.28
2023-04-24T01:41:38.025Z,45.27
2023-04-24T01:44:08.770Z,45.37
2023-04-24T01:46:39.633Z,45.45
2023-04-24T01:49:10.439Z,45.48
2023-04-24T01:51:41.259Z,45.54
2023-04-24T01:54:12.179Z,45.51
2023-04-24T01:56:44.237Z,45.57
2023-04-24T01:59:15.074Z,45.52
2023-04-24T02:01:45.880Z,45.52
2023-04-24T02:04:17.368Z,45.59
2023-04-24T02:06:48.448Z,45.67
2023-04-24T02:09:19.254Z,45.80
2023-04-24T02:11:49.969Z,45.83
2023-04-24T02:14:20.824Z,45.87
2023-04-24T02:16:51.651Z,45.91
2023-04-24T02:19:22.686Z,45.95
2023-04-24T02:21:53.671Z,46.02
2023-04-24T02:24:24.643Z,46.16
2023-04-24T02:26:55.975Z,46.15
2023-04-24T02:29:26.678Z,46.21
2023-04-24T02:31:57.667Z,46.29
2023-04-24T02:34:28.479Z,46.26
2023-04-24T02:36:59.342Z,46.38
2023-04-24T02:39:30.176Z,46.37
2023-04-24T02:42:01.309Z,46.37
2023-04-24T02:44:32.116Z,46.36
2023-04-24T02:47:03.013Z,46.45
2023-04-24T02:49:33.912Z,46.57
2023-04-24T02:52:04.673Z,46.54
2023-04-24T02:54:35.497Z,46.64
2023-04-24T02:57:07.286Z,46.72
2023-04-24T02:59:38.293Z,46.73
2023-04-24T03:02:09.149Z,46.91
2023-04-24T03:04:41.208Z,47.06
2023-04-24T03:07:12.134Z,47.25
2023-04-24T03:09:43.274Z,47.49
2023-04-24T03:12:14.402Z,47.66
2023-04-24T03:14:45.114Z,47.82
2023-04-24T03:17:15.982Z,47.97
2023-04-24T03:19:46.943Z,48.00
2023-04-24T03:22:17.820Z,48.12
2023-04-24T03:24:48.703Z,48.05
2023-04-24T03:27:19.559Z,48.10
2023-04-24T03:29:52.787Z,48.13
2023-04-24T03:32:24.459Z,48.19
2023-04-24T03:34:55.333Z,48.06
2023-04-24T03:37:27.577Z,48.24
2023-04-24T03:39:58.382Z,48.31
2023-04-24T03:42:32.207Z,48.39
2023-04-24T03:45:02.957Z,48.39
2023-04-24T03:47:33.862Z,48.46
2023-04-24T03:50:05.083Z,48.53
2023-04-24T03:52:36.265Z,48.55
2023-04-24T03:55:07.692Z,48.63
2023-04-24T03:57:38.435Z,48.74
2023-04-24T04:00:10.927Z,48.73
2023-04-24T04:02:41.874Z,48.83
2023-04-24T04:05:13.230Z,48.78
2023-04-24T04:07:43.995Z,48.73
2023-04-24T04:10:14.667Z,48.77
2023-04-24T04:12:45.673Z,48.87
2023-04-24T04:15:16.457Z,48.76
2023-04-24T04:17:48.218Z,48.79
2023-04-24T04:20:19.091Z,48.85
2023-04-24T04:22:50.016Z,48.84
2023-04-24T04:25:21.160Z,48.97
2023-04-24T04:27:52.313Z,49.05
2023-04-24T04:30:23.222Z,49.11
2023-04-24T04:32:54.160Z,49.08
2023-04-24T04:35:25.153Z,49.18
2023-04-24T04:37:57.217Z,49.17
2023-04-24T04:40:29.049Z,49.27
2023-04-24T04:43:00.026Z,49.20
2023-04-24T04:45:32.000Z,49.19
2023-04-24T04:48:03.635Z,49.16
2023-04-24T04:50:34.446Z,49.22
2023-04-24T04:53:05.197Z,49.12
2023-04-24T04:55:36.094Z,49.16
2023-04-24T04:58:06.828Z,49.15
2023-04-24T05:00:38.604Z,49.13
2023-04-24T05:03:20.058Z,49.05
2023-04-24T05:05:51.962Z,49.14
2023-04-24T05:10:56.571Z,49.11
2023-04-24T05:13:39.330Z,49.16
2023-04-24T05:16:11.992Z,49.20
2023-04-24T05:18:42.813Z,49.33
2023-04-24T05:21:14.122Z,49.41
2023-04-24T05:23:45.041Z,49.32
2023-04-24T05:26:15.819Z,49.41
2023-04-24T05:28:46.645Z,49.27
2023-04-24T05:31:18.959Z,49.38
2023-04-24T05:33:49.651Z,49.31
2023-04-24T05:36:20.802Z,49.19
2023-04-24T05:38:51.822Z,49.01
2023-04-24T05:41:23.613Z,49.09
2023-04-24T05:43:54.563Z,48.91
2023-04-24T05:46:25.422Z,48.96
2023-04-24T05:48:56.263Z,48.78
2023-04-24T05:51:27.397Z,48.86
2023-04-24T05:53:58.374Z,48.81
2023-04-24T05:56:29.245Z,48.81
2023-04-24T05:59:00.170Z,48.55
2023-04-24T06:01:32.553Z,48.50
2023-04-24T06:04:03.529Z,48.39
2023-04-24T06:06:34.475Z,48.14
2023-04-24T06:09:05.955Z,48.18
2023-04-24T06:11:36.960Z,48.13
2023-04-24T06:14:07.743Z,48.14
2023-04-24T06:16:40.083Z,47.99
2023-04-24T06:19:10.855Z,48.03
2023-04-24T06:21:41.653Z,47.85
2023-04-24T06:24:13.278Z,47.73
2023-04-24T06:26:44.055Z,47.66
2023-04-24T06:29:14.806Z,47.63
2023-04-24T06:31:45.558Z,47.46
2023-04-24T06:34:16.349Z,47.35
2023-04-24T06:36:47.082Z,47.35
2023-04-24T06:39:18.016Z,47.29
2023-04-24T06:41:48.894Z,47.15
2023-04-24T06:44:19.751Z,47.04
2023-04-24T06:46:50.386Z,46.74
2023-04-24T06:49:21.287Z,46.83
2023-04-24T06:51:52.012Z,46.81
2023-04-24T06:54:22.845Z,46.73
2023-04-24T06:56:53.613Z,46.57
2023-04-24T06:59:24.543Z,46.46
2023-04-24T07:01:55.790Z,46.38
2023-04-24T07:04:27.271Z,46.38
2023-04-24T07:06:59.349Z,46.28
2023-04-24T07:09:30.224Z,46.12
2023-04-24T07:12:01.339Z,45.97
2023-04-24T07:14:32.268Z,45.97
2023-04-24T07:17:03.211Z,45.90
2023-04-24T07:19:34.171Z,45.80
2023-04-24T07:22:04.869Z,45.44
2023-04-24T07:24:35.622Z,45.13
2023-04-24T07:27:06.529Z,45.37
2023-04-24T07:29:37.550Z,45.07
2023-04-24T07:32:08.985Z,45.08
2023-04-24T07:34:39.871Z,45.14
2023-04-24T07:37:10.792Z,44.70
2023-04-24T07:39:41.841Z,44.48
2023-04-24T07:42:12.718Z,44.49
2023-04-24T07:44:43.549Z,44.63
2023-04-24T07:47:15.969Z,44.36
2023-04-24T07:49:46.664Z,44.23
2023-04-24T07:52:17.492Z,43.92
2023-04-24T07:54:48.599Z,43.84
2023-04-24T07:57:19.371Z,43.55
2023-04-24T07:59:50.148Z,43.44
2023-04-24T08:02:22.906Z,43.14
2023-04-24T08:04:53.917Z,43.31
2023-04-24T08:07:25.444Z,43.26
2023-04-24T08:09:56.326Z,43.25
2023-04-24T08:12:27.192Z,43.31
2023-04-24T08:14:57.855Z,43.24
2023-04-24T08:17:28.620Z,43.15
2023-04-24T08:20:02.911Z,43.07
2023-04-24T08:22:33.806Z,42.88
2023-04-24T08:25:04.704Z,42.69
2023-04-24T08:27:35.625Z,42.74
2023-04-24T08:30:06.852Z,42.27
2023-04-24T08:32:38.146Z,42.27
2023-04-24T08:35:10.903Z,42.37
2023-04-24T08:37:41.735Z,42.31
2023-04-24T08:40:15.335Z,42.24
2023-04-24T08:42:46.669Z,42.03
2023-04-24T08:45:17.549Z,42.00
2023-04-24T08:47:48.375Z,41.87
2023-04-24T08:50:19.323Z,41.75
2023-04-24T08:52:50.713Z,41.63
2023-04-24T08:55:21.816Z,41.48
2023-04-24T08:57:55.384Z,41.11
2023-04-24T09:00:26.130Z,41.15
2023-04-24T09:02:57.377Z,41.07
2023-04-24T09:05:28.619Z,40.52
2023-04-24T09:07:59.624Z,40.44
2023-04-24T09:10:31.741Z,40.17
2023-04-24T09:13:03.731Z,39.85
2023-04-24T09:15:34.902Z,39.95
2023-04-24T09:18:06.312Z,39.96
2023-04-24T09:20:37.843Z,39.81
2023-04-24T09:23:11.341Z,39.52
2023-04-24T09:25:42.827Z,39.75
2023-04-24T09:28:13.655Z,39.52
2023-04-24T09:30:44.456Z,39.20
2023-04-24T09:33:15.874Z,39.22
2023-04-24T09:35:50.698Z,38.68
2023-04-24T09:38:22.348Z,38.93
2023-04-24T09:40:53.235Z,38.67
2023-04-24T09:43:24.039Z,38.20
2023-04-24T09:45:58.040Z,38.31
2023-04-24T09:48:35.880Z,38.29
2023-04-24T09:51:08.089Z,38.24
2023-04-24T09:53:40.423Z,37.98
2023-04-24T09:56:13.547Z,37.74
2023-04-24T09:58:44.399Z,37.65
2023-04-24T10:01:15.257Z,37.26
2023-04-24T10:03:46.226Z,37.23
2023-04-24T10:06:17.134Z,36.98
2023-04-24T10:08:57.193Z,36.90
2023-04-24T10:11:28.143Z,36.44
2023-04-24T10:13:59.402Z,36.50
2023-04-24T10:16:30.408Z,36.80
2023-04-24T10:19:01.296Z,35.97
2023-04-24T10:21:32.202Z,35.46
2023-04-24T10:24:04.786Z,35.53
2023-04-24T10:26:35.505Z,35.47
2023-04-24T10:29:06.082Z,35.21
2023-04-24T10:31:36.984Z,34.93
2023-04-24T10:34:07.766Z,34.60
2023-04-24T10:36:39.293Z,34.60
2023-04-24T10:39:12.901Z,34.52
2023-04-24T10:41:43.727Z,34.21
2023-04-24T10:44:15.102Z,33.67
2023-04-24T10:46:47.035Z,33.31
2023-04-24T10:49:17.670Z,33.56
2023-04-24T10:51:49.382Z,33.80
2023-04-24T10:54:26.866Z,33.81
2023-04-24T10:57:13.516Z,33.07
2023-04-24T10:59:44.252Z,32.93
2023-04-24T11:02:16.212Z,32.64
2023-04-24T11:04:47.448Z,32.58
2023-04-24T11:07:18.328Z,32.29
2023-04-24T11:09:49.027Z,32.39
2023-04-24T11:12:19.865Z,32.20
2023-04-24T11:15:04.440Z,32.01
2023-04-24T11:17:35.938Z,31.25
2023-04-24T11:20:22.845Z,31.65
2023-04-24T11:22:59.015Z,31.73
2023-04-24T11:25:31.170Z,31.76
2023-04-24T11:28:07.302Z,31.48
2023-04-24T11:30:37.938Z,31.50
2023-04-24T11:33:08.797Z,30.80
2023-04-24T11:35:41.745Z,30.69
2023-04-24T11:38:24.057Z,30.46
2023-04-24T11:40:56.253Z,30.75
2023-04-24T11:43:27.223Z,30.28
2023-04-24T11:45:59.292Z,30.29
2023-04-24T11:48:30.490Z,30.33
2023-04-24T11:51:01.671Z,30.18
2023-04-24T11:53:32.426Z,29.96
2023-04-24T11:56:07.021Z,30.18
2023-04-24T11:58:39.332Z,29.72
2023-04-24T12:01:10.113Z,29.60
2023-04-24T12:03:41.408Z,29.55
2023-04-24T12:06:13.768Z,29.26
2023-04-24T12:08:44.676Z,29.27
2023-04-24T12:11:16.811Z,29.16
2023-04-24T12:13:48.446Z,28.88
2023-04-24T12:16:19.203Z,28.66
2023-04-24T12:18:50.002Z,28.63
2023-04-24T12:21:23.093Z,28.49
2023-04-24T12:23:56.427Z,28.29
2023-04-24T12:26:27.816Z,28.53
2023-04-24T12:28:58.571Z,28.48
2023-04-24T12:31:30.689Z,28.38
2023-04-24T12:34:01.766Z,28.39
2023-04-24T12:36:32.515Z,27.77
2023-04-24T12:39:03.114Z,27.90
2023-04-24T12:41:34.002Z,27.73
2023-04-24T12:44:04.770Z,28.00
2023-04-24T12:46:35.404Z,28.30
2023-04-24T12:49:06.343Z,27.91
2023-04-24T12:51:37.174Z,28.06
2023-04-24T12:54:08.474Z,27.80
2023-04-24T12:56:40.552Z,27.50
2023-04-24T12:59:11.414Z,27.21
2023-04-24T13:01:42.779Z,27.32
2023-04-24T13:04:13.678Z,27.46
2023-04-24T13:06:44.539Z,27.58
2023-04-24T13:09:15.409Z,27.35
2023-04-24T13:11:46.091Z,27.32
2023-04-24T13:14:16.935Z,27.14
2023-04-24T13:16:47.683Z,26.94
2023-04-24T13:19:18.435Z,27.23
2023-04-24T13:21:49.390Z,27.21
2023-04-24T13:24:21.310Z,27.33
2023-04-24T13:26:52.153Z,27.27
2023-04-24T13:29:22.820Z,27.27
2023-04-24T13:31:58.476Z,26.96
2023-04-24T13:34:30.021Z,27.25
2023-04-24T13:37:00.843Z,26.96
2023-04-24T13:39:31.814Z,26.94
2023-04-24T13:42:04.626Z,26.85
2023-04-24T13:44:35.963Z,26.97
2023-04-24T13:47:06.797Z,26.95
2023-04-24T13:49:37.525Z,26.87
2023-04-24T13:52:08.580Z,26.83
2023-04-24T13:54:39.405Z,26.72
2023-04-24T13:57:10.386Z,26.70
2023-04-24T13:59:41.199Z,26.91
2023-04-24T14:02:11.960Z,27.01
2023-04-24T14:04:45.227Z,26.97
2023-04-24T14:07:16.116Z,27.12
2023-04-24T14:09:46.848Z,27.05
2023-04-24T14:12:19.739Z,27.05
2023-04-24T14:14:50.642Z,26.97
2023-04-24T14:17:21.501Z,27.05
2023-04-24T14:19:53.067Z,27.15
2023-04-24T14:22:24.054Z,27.01
2023-04-24T14:24:54.951Z,26.92
2023-04-24T14:27:26.504Z,26.97
2023-04-24T14:29:58.206Z,27.05
2023-04-24T14:32:29.289Z,27.13
2023-04-24T14:35:00.157Z,27.04
2023-04-24T14:37:31.333Z,27.04
2023-04-24T14:42:37.905Z,27.03
2023-04-24T14:45:10.134Z,27.08
2023-04-24T14:47:41.012Z,26.99
2023-04-24T14:50:13.626Z,26.98
2023-04-24T14:52:44.355Z,26.80
2023-04-24T14:55:15.567Z,26.93
2023-04-24T14:57:46.396Z,27.14
2023-04-24T15:00:18.282Z,27.02
2023-04-24T15:02:49.133Z,26.97
2023-04-24T15:05:20.979Z,27.07
2023-04-24T15:07:51.900Z,27.23
2023-04-24T15:10:24.105Z,27.13
2023-04-24T15:12:54.881Z,27.34
2023-04-24T15:15:25.692Z,27.42
2023-04-24T15:17:56.686Z,27.37
2023-04-24T15:20:27.497Z,27.29
2023-04-24T15:23:00.461Z,27.53
2023-04-24T15:25:31.112Z,27.24
2023-04-24T15:28:02.332Z,27.54
2023-04-24T15:30:33.203Z,27.66
2023-04-24T15:33:04.103Z,27.70
2023-04-24T15:35:35.924Z,27.45
2023-04-24T15:38:07.220Z,27.65
2023-04-24T15:40:37.903Z,27.55
2023-04-24T15:43:08.639Z,27.63
2023-04-24T15:45:39.496Z,27.52
2023-04-24T15:48:10.331Z,27.54
2023-04-24T15:50:41.222Z,27.61
2023-04-24T15:53:12.635Z,27.59
2023-04-24T15:55:43.269Z,28.08
2023-04-24T15:58:14.333Z,28.17
2023-04-24T16:00:45.309Z,28.24
2023-04-24T16:03:16.293Z,28.21
2023-04-24T16:05:47.397Z,28.07
2023-04-24T16:08:18.203Z,28.38
2023-04-24T16:10:49.173Z,28.43
2023-04-24T16:13:20.094Z,28.51
2023-04-24T16:15:52.184Z,28.41
2023-04-24T16:18:23.433Z,28.45
2023-04-24T16:20:54.851Z,28.63
2023-04-24T16:23:25.805Z,28.55
2023-04-24T16:25:56.606Z,28.66
2023-04-24T16:28:28.598Z,28.85
2023-04-24T16:31:03.199Z,28.81
2023-04-24T16:33:34.229Z,28.91
2023-04-24T16:36:07.363Z,28.98
2023-04-24T16:38:38.680Z,29.20
2023-04-24T16:41:09.722Z,29.18
2023-04-24T16:43:40.733Z,29.45
2023-04-24T16:46:11.643Z,29.57
2023-04-24T16:48:42.622Z,29.66
2023-04-24T16:51:13.458Z,29.83
2023-04-24T16:53:44.431Z,29.89
2023-04-24T16:56:16.166Z,29.89
2023-04-24T16:58:47.275Z,30.07
2023-04-24T17:01:18.618Z,30.09
2023-04-24T17:03:49.508Z,30.15
2023-04-24T17:06:20.597Z,30.26
2023-04-24T17:08:51.437Z,30.19
2023-04-24T17:11:23.181Z,30.27
2023-04-24T17:13:54.243Z,30.32
2023-04-24T17:16:25.059Z,30.64
2023-04-24T17:18:56.108Z,30.60
2023-04-24T17:21:28.122Z,30.84
2023-04-24T17:23:58.998Z,30.93
2023-04-24T17:26:32.408Z,31.04
2023-04-24T17:29:03.760Z,31.15
2023-04-24T17:31:34.470Z,31.19
2023-04-24T17:34:06.546Z,31.39
2023-04-24T17:36:41.793Z,31.46
2023-04-24T17:39:12.732Z,31.60
2023-04-24T17:47:58.937Z,31.85
2023-04-24T17:50:57.810Z,32.07
2023-04-24T18:24:22.600Z,33.20
2023-04-24T18:26:50.898Z,33.32
2023-04-24T18:29:18.940Z,33.48
2023-04-24T18:31:47.103Z,33.46
2023-04-24T18:34:15.167Z,33.66
2023-04-24T18:36:46.038Z,33.66
2023-04-24T18:39:17.463Z,33.72
2023-04-24T18:41:46.922Z,33.75
2023-04-24T18:44:15.287Z,33.71
2023-04-24T18:47:05.397Z,33.89
2023-04-24T18:49:33.884Z,34.01
2023-04-24T18:52:11.612Z,33.99
2023-04-24T18:54:40.642Z,33.97
2023-04-24T18:57:10.176Z,34.24
2023-04-24T18:59:38.538Z,34.21
2023-04-24T19:02:07.066Z,34.25
2023-04-24T19:04:35.495Z,34.35
2023-04-24T19:07:03.977Z,34.40
2023-04-24T19:09:32.115Z,34.55
2023-04-24T19:12:01.431Z,34.73
2023-04-24T19:14:29.798Z,34.63
2023-04-24T19:16:58.068Z,34.45
2023-04-24T19:19:28.223Z,34.58
2023-04-24T19:38:25.332Z,35.16
2023-04-24T19:40:56.315Z,35.36
2023-04-24T19:43:27.377Z,35.34
2023-04-24T19:45:58.784Z,35.61
2023-04-24T19:48:34.054Z,35.64
2023-04-24T19:51:07.956Z,35.77
2023-04-24T19:53:38.858Z,35.69
2023-04-24T19:56:12.032Z,35.78
2023-04-24T19:58:45.932Z,35.81
2023-04-24T20:01:21.178Z,35.98
2023-04-24T20:03:52.494Z,36.25
2023-04-24T20:06:23.499Z,36.48
2023-04-24T20:08:56.811Z,36.59
2023-04-24T20:11:27.696Z,36.69
2023-04-24T20:13:58.584Z,36.77
2023-04-24T20:16:29.797Z,36.91
2023-04-24T20:19:01.236Z,37.06
2023-04-24T20:21:32.577Z,37.14
2023-04-24T20:24:04.667Z,37.23
2023-04-24T20:26:36.384Z,37.34
2023-04-24T20:29:11.361Z,37.48
2023-04-24T20:31:42.863Z,37.56
2023-04-24T20:34:13.852Z,37.74
2023-04-24T20:36:49.412Z,37.91
2023-04-24T20:39:20.983Z,37.96
2023-04-24T20:41:52.507Z,38.10
2023-04-24T20:44:25.456Z,38.10
2023-04-24T20:46:56.546Z,38.22
2023-04-24T20:49:29.817Z,38.29
2023-04-24T20:52:00.697Z,38.40
2023-04-24T20:54:31.793Z,38.61
2023-04-24T20:57:03.271Z,38.71
2023-04-24T20:59:34.232Z,38.69
2023-04-24T21:02:05.196Z,38.76
2023-04-24T21:04:38.832Z,39.02
2023-04-24T21:07:11.930Z,39.16
2023-04-24T21:09:42.854Z,39.35
2023-04-24T21:12:13.688Z,39.48
2023-04-24T21:14:44.472Z,39.52
2023-04-24T21:17:16.213Z,39.69
2023-04-24T21:19:47.176Z,39.83
2023-04-24T21:22:18.000Z,39.86
2023-04-24T21:24:48.791Z,39.95
2023-04-24T21:27:19.661Z,40.05
2023-04-24T21:29:50.690Z,40.08
2023-04-24T21:32:21.601Z,40.36
2023-04-24T21:34:52.554Z,40.32
2023-04-24T21:37:23.358Z,40.52
2023-04-24T21:39:54.376Z,40.64
2023-04-24T21:42:25.341Z,40.67
2023-04-24T21:44:56.248Z,40.67
2023-04-24T21:47:27.120Z,40.74
2023-04-24T21:49:57.999Z,40.94
2023-04-24T21:52:28.797Z,40.99
2023-04-24T21:54:59.645Z,40.96
2023-04-24T21:57:30.534Z,41.19
2023-04-24T22:00:01.497Z,41.20
2023-04-24T22:02:32.948Z,41.37
2023-04-24T22:05:04.685Z,41.34
2023-04-24T22:07:36.592Z,41.42
2023-04-24T22:10:08.854Z,41.59
2023-04-24T22:12:39.768Z,41.62
2023-04-24T22:15:11.042Z,41.75
2023-04-24T22:17:42.134Z,41.88
2023-04-24T22:20:14.051Z,41.87
2023-04-24T22:22:44.913Z,41.95
2023-04-24T22:25:15.775Z,42.01
2023-04-24T22:27:46.786Z,42.15
2023-04-24T22:30:17.710Z,42.29
2023-04-24T22:32:48.781Z,42.25
2023-04-24T22:35:20.472Z,42.38
2023-04-24T22:37:53.301Z,42.57
2023-04-24T22:40:24.074Z,42.60
2023-04-24T22:42:54.825Z,42.65
2023-04-24T22:45:26.295Z,42.72
2023-04-24T22:47:57.367Z,42.87
2023-04-24T22:50:29.245Z,42.88
2023-04-24T22:53:00.107Z,42.97
2023-04-24T22:55:31.625Z,43.14
2023-04-24T22:58:02.398Z,43.23
2023-04-24T23:00:33.259Z,43.42
2023-04-24T23:03:04.921Z,43.42
2023-04-24T23:05:36.272Z,43.44
2023-04-24T23:08:07.229Z,43.60
2023-04-24T23:10:38.313Z,43.66
2023-04-24T23:13:09.096Z,43.73
2023-04-24T23:15:40.147Z,43.86
2023-04-24T23:18:11.847Z,43.93
2023-04-24T23:20:43.410Z,44.13
2023-04-24T23:23:14.193Z,44.28
2023-04-24T23:25:45.179Z,44.32
2023-04-24T23:28:15.954Z,44.35
2023-04-24T23:30:46.943Z,44.44
2023-04-24T23:33:17.716Z,44.67
2023-04-24T23:35:48.503Z,44.79
2023-04-24T23:38:19.317Z,44.80
2023-04-24T23:40:50.798Z,44.96
2023-04-24T23:43:21.665Z,45.06
2023-04-24T23:45:52.698Z,45.09
2023-04-24T23:48:23.523Z,45.14
2023-04-24T23:50:54.345Z,45.17
2023-04-24T23:53:25.185Z,45.16
2023-04-24T23:55:56.016Z,45.31
2023-04-24T23:58:26.879Z,45.28
